createdAt,value
2019-05-26T00:00:21.819Z,15.83
2019-05-26T00:02:51.612Z,15.63
2019-05-26T00:05:21.388Z,15.73
2019-05-26T00:07:51.247Z,10.07
2019-05-26T00:10:21.112Z,16.07
2019-05-26T00:12:51.073Z,13.57
2019-05-26T00:15:20.931Z,12.20
2019-05-26T00:17:50.723Z,11.77
2019-05-26T00:20:20.485Z,11.20
2019-05-26T00:22:50.348Z,10.93
2019-05-26T00:25:20.119Z,10.00
2019-05-26T00:27:49.910Z,8.23
2019-05-26T00:30:20.314Z,9.87
2019-05-26T00:32:50.174Z,13.17
2019-05-26T00:35:19.891Z,10.27
2019-05-26T00:37:50.632Z,4.80
2019-05-26T00:40:21.575Z,11.80
2019-05-26T00:42:51.351Z,8.33
2019-05-26T00:45:21.123Z,10.67
2019-05-26T00:47:50.980Z,15.10
2019-05-26T00:50:20.946Z,9.70
2019-05-26T00:52:50.770Z,13.90
2019-05-26T00:55:21.022Z,11.50
2019-05-26T00:57:50.735Z,10.57
2019-05-26T01:00:38.313Z,14.63
2019-05-26T01:03:08.094Z,8.37
2019-05-26T01:05:38.130Z,16.20
2019-05-26T01:08:08.619Z,15.17
2019-05-26T01:10:38.481Z,13.70
2019-05-26T01:13:08.503Z,8.67
2019-05-26T01:15:38.310Z,14.33
2019-05-26T01:18:08.180Z,11.37
2019-05-26T01:20:37.946Z,12.50
2019-05-26T01:23:07.853Z,17.80
2019-05-26T01:25:37.608Z,12.57
2019-05-26T01:28:07.312Z,13.70
2019-05-26T01:30:38.883Z,14.60
2019-05-26T01:33:08.764Z,11.60
2019-05-26T01:35:41.320Z,16.63
2019-05-26T01:38:23.306Z,10.73
2019-05-26T01:40:45.119Z,14.07
2019-05-26T01:43:14.871Z,11.40
2019-05-26T01:45:44.572Z,11.63
2019-05-26T01:48:14.338Z,19.17
2019-05-26T01:50:44.144Z,14.00
2019-05-26T01:53:13.933Z,14.67
2019-05-26T01:55:43.652Z,10.70
2019-05-26T01:58:13.363Z,11.60
2019-05-26T02:00:43.159Z,14.60
2019-05-26T02:03:12.963Z,14.73
2019-05-26T02:05:42.677Z,12.93
2019-05-26T02:08:12.533Z,19.87
2019-05-26T02:10:42.219Z,19.50
2019-05-26T02:13:11.973Z,12.97
2019-05-26T02:15:41.752Z,14.63
2019-05-26T02:18:11.527Z,16.47
2019-05-26T02:20:41.316Z,9.13
2019-05-26T02:23:11.291Z,20.23
2019-05-26T02:25:41.095Z,13.77
2019-05-26T02:28:10.915Z,16.57
2019-05-26T02:30:40.978Z,9.77
2019-05-26T02:33:10.837Z,16.83
2019-05-26T02:35:40.617Z,17.80
2019-05-26T02:38:10.392Z,15.00
2019-05-26T02:40:40.132Z,18.90
2019-05-26T02:43:09.908Z,17.13
2019-05-26T02:45:39.787Z,17.57
2019-05-26T02:48:09.632Z,20.27
2019-05-26T02:50:39.305Z,16.90
2019-05-26T02:53:09.032Z,12.63
2019-05-26T02:55:38.848Z,21.13
2019-05-26T02:58:08.678Z,21.47
2019-05-26T03:00:43.767Z,20.97
2019-05-26T03:03:15.987Z,24.30
2019-05-26T03:05:46.836Z,25.40
2019-05-26T03:08:17.141Z,19.83
2019-05-26T03:10:48.704Z,24.20
2019-05-26T03:13:18.599Z,24.03
2019-05-26T03:15:48.573Z,23.53
2019-05-26T03:18:18.754Z,24.37
2019-05-26T03:20:48.629Z,18.80
2019-05-26T03:23:18.494Z,25.67
2019-05-26T03:25:48.316Z,21.10
2019-05-26T03:28:18.168Z,25.43
2019-05-26T03:30:47.943Z,25.13
2019-05-26T03:33:18.068Z,30.80
2019-05-26T03:35:47.925Z,23.30
2019-05-26T03:38:17.640Z,26.63
2019-05-26T03:40:47.391Z,20.13
2019-05-26T03:43:17.190Z,26.50
2019-05-26T03:46:18.414Z,24.47
2019-05-26T03:48:48.382Z,25.53
2019-05-26T03:51:18.199Z,28.27
2019-05-26T03:53:47.996Z,27.77
2019-05-26T03:56:17.810Z,25.57
2019-05-26T03:58:47.637Z,37.00
2019-05-26T04:01:17.434Z,38.07
2019-05-26T04:03:47.310Z,37.53
2019-05-26T04:06:17.011Z,39.67
2019-05-26T04:08:46.816Z,32.33
2019-05-26T04:11:17.105Z,32.93
2019-05-26T04:13:46.991Z,35.00
2019-05-26T04:16:16.791Z,38.83
2019-05-26T04:18:46.668Z,39.90
2019-05-26T04:21:16.471Z,42.13
2019-05-26T04:23:46.329Z,44.53
2019-05-26T04:26:16.188Z,41.77
2019-05-26T04:28:46.537Z,38.33
2019-05-26T04:31:16.276Z,40.43
2019-05-26T04:33:46.098Z,39.63
2019-05-26T04:36:15.849Z,36.83
2019-05-26T04:38:45.686Z,33.93
2019-05-26T04:41:15.490Z,35.40
2019-05-26T04:43:45.409Z,44.27
2019-05-26T04:46:15.174Z,33.87
2019-05-26T04:48:44.989Z,41.23
2019-05-26T04:51:14.823Z,37.53
2019-05-26T04:53:44.597Z,39.10
2019-05-26T04:56:14.414Z,41.30
2019-05-26T04:58:44.302Z,33.77
2019-05-26T05:01:14.048Z,32.50
2019-05-26T05:13:51.923Z,39.77
2019-05-26T05:16:21.846Z,39.27
2019-05-26T05:18:51.918Z,41.43
2019-05-26T05:21:21.718Z,43.43
2019-05-26T05:23:51.558Z,39.23
2019-05-26T05:26:24.460Z,38.40
2019-05-26T05:28:57.424Z,37.67
2019-05-26T05:31:27.208Z,44.33
2019-05-26T05:33:56.992Z,40.87
2019-05-26T05:36:26.838Z,42.07
2019-05-26T05:38:56.685Z,35.73
2019-05-26T05:41:26.385Z,45.33
2019-05-26T05:43:56.136Z,36.90
2019-05-26T05:46:25.868Z,37.03
2019-05-26T05:48:55.808Z,37.00
2019-05-26T05:51:25.515Z,40.43
2019-05-26T05:53:55.366Z,36.57
2019-05-26T05:56:25.837Z,33.77
2019-05-26T05:58:55.562Z,34.93
2019-05-26T06:01:25.563Z,38.43
2019-05-26T06:03:55.443Z,36.67
2019-05-26T06:06:25.190Z,39.23
2019-05-26T06:08:54.899Z,35.67
2019-05-26T06:11:25.033Z,36.20
2019-05-26T06:13:54.832Z,35.57
2019-05-26T06:16:24.760Z,38.93
2019-05-26T06:18:54.476Z,25.67
2019-05-26T06:21:25.120Z,30.43
2019-05-26T06:23:54.840Z,32.47
2019-05-26T06:26:24.727Z,38.53
2019-05-26T06:28:54.594Z,36.00
2019-05-26T06:31:24.533Z,30.93
2019-05-26T06:33:54.398Z,28.77
2019-05-26T06:36:24.164Z,36.30
2019-05-26T06:38:53.939Z,27.23
2019-05-26T06:41:33.021Z,39.60
2019-05-26T06:43:55.506Z,39.87
2019-05-26T06:46:25.225Z,36.20
2019-05-26T06:48:54.909Z,33.80
2019-05-26T06:51:24.620Z,26.83
2019-05-26T06:53:54.319Z,27.77
2019-05-26T06:56:24.025Z,30.70
2019-05-26T06:58:53.780Z,30.97
2019-05-26T07:01:23.570Z,32.00
2019-05-26T07:03:53.264Z,28.77
2019-05-26T07:06:23.050Z,25.97
2019-05-26T07:08:52.818Z,30.63
2019-05-26T07:11:22.576Z,28.53
2019-05-26T07:13:52.260Z,28.70
2019-05-26T07:16:36.879Z,25.43
2019-05-26T07:18:53.367Z,28.50
2019-05-26T07:21:23.119Z,27.27
2019-05-26T07:23:52.869Z,28.77
2019-05-26T07:26:22.584Z,29.23
2019-05-26T07:28:53.094Z,25.33
2019-05-26T07:31:22.974Z,28.33
2019-05-26T07:33:52.733Z,30.90
2019-05-26T07:47:00.169Z,28.17
2019-05-26T07:49:29.895Z,29.57
2019-05-26T07:51:59.556Z,24.63
2019-05-26T07:54:29.332Z,23.93
2019-05-26T07:56:59.155Z,26.77
2019-05-26T07:59:28.823Z,24.10
2019-05-26T08:01:58.702Z,20.97
2019-05-26T08:04:28.467Z,23.33
2019-05-26T08:06:58.458Z,21.17
2019-05-26T08:09:28.272Z,22.90
2019-05-26T08:11:57.942Z,21.77
2019-05-26T08:14:27.705Z,19.47
2019-05-26T08:16:57.535Z,19.87
2019-05-26T08:19:27.395Z,23.40
2019-05-26T08:21:57.261Z,19.80
2019-05-26T08:24:27.130Z,19.33
2019-05-26T08:26:56.943Z,19.53
2019-05-26T08:29:26.750Z,18.63
2019-05-26T08:31:56.896Z,20.90
2019-05-26T08:34:26.614Z,17.03
2019-05-26T08:36:56.705Z,18.87
2019-05-26T08:39:26.951Z,19.43
2019-05-26T08:41:56.758Z,16.83
2019-05-26T08:44:26.471Z,23.77
2019-05-26T08:46:56.237Z,14.77
2019-05-26T08:49:26.023Z,14.00
2019-05-26T08:51:55.873Z,15.27
2019-05-26T08:54:25.591Z,18.33
2019-05-26T08:56:55.526Z,14.63
2019-05-26T08:59:25.378Z,17.10
2019-05-26T09:01:55.118Z,11.83
2019-05-26T09:04:25.022Z,16.70
2019-05-26T09:06:54.787Z,19.30
2019-05-26T09:09:24.477Z,14.17
2019-05-26T09:11:54.310Z,14.93
2019-05-26T09:14:25.587Z,14.80
2019-05-26T09:16:55.741Z,16.83
2019-05-26T09:19:25.549Z,14.40
2019-05-26T09:25:27.362Z,15.73
2019-05-26T09:27:57.081Z,15.10
2019-05-26T09:30:26.833Z,18.03
2019-05-26T09:32:56.579Z,14.40
2019-05-26T09:35:26.418Z,15.10
2019-05-26T09:37:56.215Z,13.37
2019-05-26T09:40:25.930Z,19.60
2019-05-26T09:42:55.639Z,17.60
2019-05-26T09:45:25.382Z,14.50
2019-05-26T09:47:55.165Z,14.10
2019-05-26T09:54:15.585Z,15.67
2019-05-26T09:56:45.396Z,15.87
2019-05-26T09:59:17.016Z,16.40
2019-05-26T10:01:46.726Z,13.90
2019-05-26T10:04:16.542Z,14.07
2019-05-26T10:06:46.304Z,12.67
2019-05-26T10:09:16.013Z,13.40
2019-05-26T10:11:45.832Z,15.13
2019-05-26T10:14:15.585Z,12.10
2019-05-26T10:16:45.406Z,12.47
2019-05-26T10:19:15.142Z,12.27
2019-05-26T10:21:44.848Z,15.97
2019-05-26T10:24:23.375Z,17.00
2019-05-26T10:26:53.104Z,15.60
2019-05-26T10:29:22.807Z,32.73
2019-05-26T10:31:52.538Z,13.47
2019-05-26T10:34:22.227Z,13.20
2019-05-26T10:36:52.094Z,17.87
2019-05-26T10:39:21.910Z,16.77
2019-05-26T10:41:51.627Z,17.00
2019-05-26T10:44:21.460Z,17.20
2019-05-26T10:46:51.414Z,17.87
2019-05-26T10:49:21.287Z,17.10
2019-05-26T10:51:51.175Z,15.33
2019-05-26T10:54:20.930Z,16.83
2019-05-26T10:56:50.721Z,16.50
2019-05-26T10:59:20.496Z,17.53
2019-05-26T11:01:50.321Z,19.97
2019-05-26T11:04:20.191Z,17.57
2019-05-26T11:06:50.033Z,18.27
2019-05-26T11:09:20.017Z,18.63
2019-05-26T11:11:49.721Z,20.37
2019-05-26T11:14:19.533Z,15.07
2019-05-26T11:16:49.430Z,18.07
2019-05-26T11:19:19.351Z,18.40
2019-05-26T11:21:49.174Z,20.80
2019-05-26T11:24:18.960Z,19.73
2019-05-26T11:26:48.918Z,18.63
2019-05-26T11:29:18.635Z,18.80
2019-05-26T11:31:48.347Z,19.40
2019-05-26T11:34:18.137Z,16.00
2019-05-26T11:36:47.950Z,17.60
2019-05-26T11:39:18.089Z,17.50
2019-05-26T11:41:54.705Z,19.70
2019-05-26T11:44:19.371Z,18.73
2019-05-26T11:46:49.146Z,18.50
2019-05-26T11:49:18.857Z,17.50
2019-05-26T11:51:48.651Z,16.97
2019-05-26T11:54:18.464Z,15.97
2019-05-26T11:56:48.357Z,17.40
2019-05-26T11:59:18.726Z,16.10
2019-05-26T12:01:48.441Z,16.97
2019-05-26T12:04:18.287Z,21.50
2019-05-26T12:06:48.047Z,16.07
2019-05-26T12:09:17.824Z,15.73
2019-05-26T12:11:47.637Z,19.63
2019-05-26T12:14:33.012Z,18.17
2019-05-26T12:16:48.871Z,15.00
2019-05-26T12:19:18.694Z,16.23
2019-05-26T12:21:48.810Z,17.40
2019-05-26T12:24:18.555Z,18.67
2019-05-26T12:26:48.405Z,16.03
2019-05-26T12:29:18.234Z,18.17
2019-05-26T12:31:48.137Z,19.03
2019-05-26T12:34:18.086Z,18.67
2019-05-26T12:36:47.917Z,17.07
2019-05-26T12:39:17.868Z,15.40
2019-05-26T12:41:47.661Z,13.00
2019-05-26T12:44:17.808Z,17.70
2019-05-26T12:46:47.557Z,12.43
2019-05-26T12:49:17.515Z,14.07
2019-05-26T12:51:47.265Z,12.90
2019-05-26T12:54:16.923Z,14.13
2019-05-26T12:56:46.664Z,20.30
2019-05-26T12:59:16.558Z,14.37
2019-05-26T13:01:46.313Z,17.53
2019-05-26T13:04:16.171Z,15.47
2019-05-26T13:06:46.019Z,14.83
2019-05-26T13:09:15.986Z,13.87
2019-05-26T13:11:45.912Z,13.00
2019-05-26T13:14:15.729Z,17.00
2019-05-26T13:16:45.661Z,15.93
2019-05-26T13:19:15.569Z,15.47
2019-05-26T13:21:45.379Z,11.90
2019-05-26T13:24:18.400Z,13.90
2019-05-26T13:26:46.902Z,13.87
2019-05-26T13:29:16.650Z,16.33
2019-05-26T13:31:46.565Z,13.57
2019-05-26T13:34:16.308Z,12.63
2019-05-26T13:50:55.178Z,18.40
2019-05-26T13:53:24.865Z,14.67
2019-05-26T13:55:54.657Z,14.00
2019-05-26T13:58:24.529Z,13.10
2019-05-26T14:00:54.328Z,12.10
2019-05-26T14:03:24.427Z,11.93
2019-05-26T14:05:54.607Z,10.27
2019-05-26T14:08:24.482Z,9.87
2019-05-26T14:10:54.276Z,8.43
2019-05-26T14:13:24.061Z,11.33
2019-05-26T14:15:55.927Z,7.57
2019-05-26T14:18:28.684Z,6.80
2019-05-26T14:20:58.481Z,10.10
2019-05-26T14:23:28.265Z,7.50
2019-05-26T14:25:58.150Z,8.90
2019-05-26T14:28:27.878Z,7.43
2019-05-26T14:30:57.619Z,7.60
2019-05-26T14:33:27.994Z,8.00
2019-05-26T14:35:57.854Z,7.10
2019-05-26T14:38:42.250Z,4.40
2019-05-26T14:40:59.062Z,5.90
2019-05-26T14:43:28.933Z,5.80
2019-05-26T14:45:58.741Z,9.90
2019-05-26T14:48:28.516Z,8.67
2019-05-26T14:50:58.299Z,9.33
2019-05-26T14:53:28.068Z,5.40
2019-05-26T14:55:57.779Z,7.83
2019-05-26T14:58:27.598Z,3.87
2019-05-26T15:00:57.464Z,5.97
2019-05-26T15:03:27.287Z,5.00
2019-05-26T15:06:05.524Z,5.23
2019-05-26T15:08:28.761Z,6.93
2019-05-26T15:10:58.681Z,9.13
2019-05-26T15:13:28.473Z,7.10
2019-05-26T15:16:09.136Z,8.47
2019-05-26T15:18:29.767Z,5.80
2019-05-26T15:20:59.617Z,10.13
2019-05-26T15:23:29.482Z,6.50
2019-05-26T15:25:59.370Z,9.40
2019-05-26T15:28:29.089Z,6.47
2019-05-26T15:30:59.549Z,8.30
2019-05-26T15:33:29.568Z,8.57
2019-05-26T15:35:59.576Z,13.93
2019-05-26T16:48:05.936Z,8.57
2019-05-26T16:50:35.687Z,6.77
2019-05-26T16:53:05.414Z,6.80
2019-05-26T16:55:35.172Z,8.27
2019-05-26T16:58:06.831Z,5.77
2019-05-26T17:00:36.542Z,10.27
2019-05-26T17:03:06.835Z,7.07
2019-05-26T17:05:37.556Z,6.77
2019-05-26T17:08:07.368Z,7.17
2019-05-26T17:10:37.201Z,11.13
2019-05-26T17:13:07.109Z,7.30
2019-05-26T17:15:37.782Z,7.37
2019-05-26T17:18:07.577Z,6.83
2019-05-26T17:20:37.404Z,6.83
2019-05-26T17:23:07.231Z,6.97
2019-05-26T17:25:37.123Z,8.47
2019-05-26T17:28:06.955Z,11.57
2019-05-26T17:30:36.750Z,6.90
2019-05-26T17:33:06.614Z,10.20
2019-05-26T17:35:36.427Z,6.87
2019-05-26T17:38:06.457Z,7.17
2019-05-26T17:40:36.325Z,10.83
2019-05-26T17:43:06.101Z,11.50
2019-05-26T17:45:35.907Z,8.77
2019-05-26T17:48:05.702Z,8.23
2019-05-26T17:50:35.652Z,14.03
2019-05-26T17:53:05.541Z,6.87
2019-05-26T17:55:35.345Z,8.50
2019-05-26T17:58:05.155Z,10.60
2019-05-26T18:00:34.915Z,11.20
2019-05-26T18:03:04.750Z,8.70
2019-05-26T18:05:34.543Z,10.87
2019-05-26T18:08:04.570Z,7.83
2019-05-26T18:10:34.467Z,9.17
2019-05-26T18:13:04.386Z,8.83
2019-05-26T18:15:34.269Z,7.93
2019-05-26T18:18:04.344Z,8.17
2019-05-26T18:20:34.299Z,8.10
2019-05-26T18:23:04.292Z,17.23
2019-05-26T18:25:34.299Z,8.53
2019-05-26T18:28:04.158Z,9.40
2019-05-26T18:30:34.168Z,7.80
2019-05-26T18:33:04.124Z,8.03
2019-05-26T18:35:33.985Z,7.87
2019-05-26T18:38:03.926Z,12.63
2019-05-26T18:40:33.929Z,10.13
2019-05-26T18:43:06.036Z,9.80
2019-05-26T18:45:35.995Z,11.63
2019-05-26T18:48:06.100Z,8.90
2019-05-26T18:50:36.086Z,9.00
2019-05-26T18:53:06.156Z,10.77
2019-05-26T18:55:36.036Z,15.47
2019-05-26T18:58:05.979Z,8.47
2019-05-26T19:00:36.124Z,11.37
2019-05-26T19:03:06.029Z,14.40
2019-05-26T19:05:38.519Z,12.43
2019-05-26T19:08:07.527Z,6.97
2019-05-26T19:10:37.484Z,7.93
2019-05-26T19:13:10.591Z,9.43
2019-05-26T19:15:39.021Z,9.07
2019-05-26T19:18:19.410Z,12.67
2019-05-26T19:20:40.902Z,10.73
2019-05-26T19:30:15.829Z,9.83
2019-05-26T19:32:45.739Z,11.67
2019-05-26T19:35:16.157Z,10.17
2019-05-26T19:37:46.164Z,8.03
2019-05-26T19:40:17.720Z,9.97
2019-05-26T19:42:47.548Z,8.87
2019-05-26T19:45:17.537Z,12.73
2019-05-26T19:47:47.349Z,10.73
2019-05-26T19:50:17.490Z,8.27
2019-05-26T19:52:49.783Z,11.40
2019-05-26T19:55:19.076Z,9.20
2019-05-26T19:57:49.108Z,8.57
2019-05-26T20:00:19.880Z,10.70
2019-05-26T20:02:49.827Z,12.67
2019-05-26T20:05:19.713Z,7.50
2019-05-26T20:07:49.643Z,8.77
2019-05-26T20:10:20.303Z,9.20
2019-05-26T20:12:50.900Z,7.97
2019-05-26T20:15:20.826Z,7.93
2019-05-26T20:17:50.959Z,9.23
2019-05-26T20:20:20.927Z,7.53
2019-05-26T20:22:51.137Z,10.50
2019-05-26T20:25:21.017Z,7.27
2019-05-26T20:27:50.844Z,7.07
2019-05-26T20:30:23.023Z,7.70
2019-05-26T20:32:53.236Z,9.73
2019-05-26T20:35:23.152Z,13.53
2019-05-26T20:37:53.127Z,7.73
2019-05-26T20:40:23.058Z,5.37
2019-05-26T20:42:52.857Z,12.27
2019-05-26T20:45:31.475Z,6.73
2019-05-26T20:48:01.389Z,10.40
2019-05-26T20:50:31.437Z,5.93
2019-05-26T20:53:01.462Z,6.90
2019-05-26T20:55:31.285Z,9.87
2019-05-26T20:58:01.210Z,8.67
2019-05-26T21:00:31.066Z,7.30
2019-05-26T21:03:00.918Z,7.20
2019-05-26T21:05:30.842Z,8.30
2019-05-26T21:08:01.150Z,12.30
2019-05-26T21:10:30.931Z,9.80
2019-05-26T21:13:01.116Z,6.17
2019-05-26T21:15:31.754Z,13.67
2019-05-26T21:18:01.624Z,8.23
2019-05-26T21:20:31.568Z,11.37
2019-05-26T21:23:01.575Z,8.37
2019-05-26T21:25:31.477Z,9.73
2019-05-26T21:28:01.291Z,6.97
2019-05-26T21:30:31.103Z,9.37
2019-05-26T21:33:00.837Z,14.77
2019-05-26T21:35:30.758Z,11.17
2019-05-26T21:38:00.476Z,11.13
2019-05-26T21:40:30.360Z,10.50
2019-05-26T21:43:00.333Z,10.90
2019-05-26T21:45:30.135Z,13.70
2019-05-26T21:48:00.583Z,17.27
2019-05-26T21:50:30.283Z,15.47
2019-05-26T21:53:00.503Z,11.50
2019-05-26T21:55:30.414Z,11.40
2019-05-26T21:58:00.273Z,11.93
2019-05-26T22:00:35.127Z,18.07
2019-05-26T22:03:05.313Z,8.97
2019-05-26T22:05:35.070Z,16.50
2019-05-26T22:08:04.979Z,13.07
2019-05-26T22:10:34.875Z,10.50
2019-05-26T22:13:04.832Z,11.60
2019-05-26T22:15:34.557Z,7.27
2019-05-26T22:18:04.373Z,10.93
2019-05-26T22:20:34.301Z,14.33
2019-05-26T22:23:04.259Z,10.07
2019-05-26T22:25:34.191Z,12.40
2019-05-26T22:28:04.041Z,11.23
2019-05-26T22:30:33.898Z,10.50
2019-05-26T22:33:03.775Z,9.10
2019-05-26T22:35:33.850Z,8.60
2019-05-26T22:38:03.642Z,11.90
2019-05-26T22:44:14.814Z,9.97
2019-05-26T22:46:44.615Z,9.60
2019-05-26T22:49:14.396Z,6.53
2019-05-26T22:51:44.661Z,7.83
2019-05-26T22:54:14.543Z,10.27
2019-05-26T22:56:44.423Z,10.30
2019-05-26T22:59:14.180Z,8.43
2019-05-26T23:01:44.077Z,10.27
2019-05-26T23:04:13.953Z,8.70
2019-05-26T23:06:43.800Z,6.73
2019-05-26T23:09:13.615Z,7.83
2019-05-26T23:11:43.531Z,7.50
2019-05-26T23:14:13.394Z,7.63
2019-05-26T23:16:43.222Z,8.53
2019-05-26T23:19:19.388Z,6.00
2019-05-26T23:21:44.652Z,8.97
2019-05-26T23:24:14.681Z,7.37
2019-05-26T23:26:44.576Z,7.83
2019-05-26T23:29:14.454Z,4.50
2019-05-26T23:31:44.400Z,5.77
2019-05-26T23:34:14.318Z,4.63
2019-05-26T23:36:44.295Z,6.30
2019-05-26T23:39:14.042Z,6.63
2019-05-26T23:41:43.866Z,6.43
2019-05-26T23:44:13.731Z,6.87
2019-05-26T23:46:43.596Z,9.00
2019-05-26T23:49:13.587Z,8.60
2019-05-26T23:51:43.436Z,5.17
2019-05-26T23:54:13.240Z,8.17
2019-05-26T23:56:43.026Z,9.43
2019-05-26T23:59:12.909Z,6.63
